Time;durP1;ratioP1;P1;durP2;ratioP2;P2;SDS_P1;SDS_P2;PMS_P1;PMS_P2;Temp;Humidity;BMP_temperature;BMP_pressure;BME280_temperature;BME280_humidity;BME280_pressure;Samples;Min_cycle;Max_cycle;Signal;HPM_P1;HPM_P2
2023/06/26 00:00:49;;;;;;;7.50;5.10;;;;;;;;;;107987;273;39460;-39
2023/06/26 00:03:44;;;;;;;7.00;5.00;;;;;;;;;;107954;276;42962;-39
2023/06/26 00:06:18;;;;;;;6.40;5.00;;;;;;;;;;107905;269;42308;-40
2023/06/26 00:08:53;;;;;;;7.60;5.60;;;;;;;;;;107973;276;38799;-39
2023/06/26 00:11:30;;;;;;;6.60;5.30;;;;;;;;;;107959;273;39671;-39
2023/06/26 00:14:06;;;;;;;7.40;5.50;;;;;;;;;;107964;269;42929;-39
2023/06/26 00:16:40;;;;;;;7.00;5.60;;;;;;;;;;107916;269;42224;-39
2023/06/26 00:19:13;;;;;;;7.50;5.40;;;;;;;;;;107957;273;39835;-39
2023/06/26 00:21:47;;;;;;;7.20;5.30;;;;;;;;;;107977;276;40831;-39
2023/06/26 00:24:23;;;;;;;7.10;5.80;;;;;;;;;;107969;273;42651;-39
2023/06/26 00:26:56;;;;;;;7.50;5.60;;;;;;;;;;107802;276;175469;-38
2023/06/26 00:29:29;;;;;;;6.70;5.50;;;;;;;;;;107968;276;39296;-38
2023/06/26 00:32:03;;;;;;;7.70;5.70;;;;;;;;;;107937;276;39846;-38
2023/06/26 00:34:36;;;;;;;6.80;5.70;;;;;;;;;;107992;273;42874;-39
2023/06/26 00:37:09;;;;;;;7.00;5.80;;;;;;;;;;107962;269;41912;-39
2023/06/26 00:39:43;;;;;;;6.90;5.60;;;;;;;;;;107968;273;38907;-40
2023/06/26 00:42:16;;;;;;;8.00;5.80;;;;;;;;;;108006;269;39678;-39
2023/06/26 00:44:49;;;;;;;6.50;5.50;;;;;;;;;;107953;269;42643;-39
2023/06/26 00:47:24;;;;;;;6.90;5.60;;;;;;;;;;107945;273;44224;-39
2023/06/26 00:49:58;;;;;;;7.50;6.30;;;;;;;;;;107952;276;38813;-39
2023/06/26 00:52:32;;;;;;;6.90;5.80;;;;;;;;;;107840;276;175448;-39
2023/06/26 00:55:07;;;;;;;6.90;5.90;;;;;;;;;;107959;276;42609;-39
2023/06/26 00:57:40;;;;;;;7.20;6.10;;;;;;;;;;107908;272;43141;-39
2023/06/26 01:00:19;;;;;;;8.00;6.10;;;;;;;;;;107970;272;39879;-39
2023/06/26 01:02:53;;;;;;;7.50;6.00;;;;;;;;;;107988;276;39710;-39
2023/06/26 01:05:26;;;;;;;7.50;6.00;;;;;;;;;;107936;276;43075;-39
2023/06/26 01:08:03;;;;;;;7.60;6.20;;;;;;;;;;107908;276;42063;-39
2023/06/26 01:10:38;;;;;;;7.30;5.80;;;;;;;;;;107961;269;38570;-39
2023/06/26 01:13:12;;;;;;;7.50;6.30;;;;;;;;;;107969;269;39845;-39
2023/06/26 01:15:45;;;;;;;7.80;6.60;;;;;;;;;;107950;269;43748;-39
2023/06/26 01:18:18;;;;;;;8.10;6.60;;;;;;;;;;107897;269;42032;-39
2023/06/26 01:20:52;;;;;;;7.20;6.10;;;;;;;;;;107868;269;175486;-39
2023/06/26 01:23:30;;;;;;;8.00;6.10;;;;;;;;;;107914;272;40141;-39
2023/06/26 01:26:18;;;;;;;8.60;6.40;;;;;;;;;;108010;273;42854;-39
2023/06/26 01:28:53;;;;;;;7.80;6.50;;;;;;;;;;107889;272;42416;-39
2023/06/26 01:31:29;;;;;;;7.40;6.30;;;;;;;;;;107869;273;175522;-39
2023/06/26 01:34:04;;;;;;;7.20;6.20;;;;;;;;;;107968;273;39666;-39
2023/06/26 01:36:39;;;;;;;7.90;6.90;;;;;;;;;;107977;269;43103;-38
2023/06/26 01:39:13;;;;;;;7.20;6.40;;;;;;;;;;107904;272;42285;-39
2023/06/26 01:41:47;;;;;;;7.60;6.80;;;;;;;;;;107931;273;38558;-39
2023/06/26 01:44:29;;;;;;;8.00;6.60;;;;;;;;;;107954;269;39950;-38
2023/06/26 01:47:05;;;;;;;8.10;6.70;;;;;;;;;;107968;276;42835;-38
2023/06/26 01:49:50;;;;;;;8.50;7.10;;;;;;;;;;107931;273;43234;-38
2023/06/26 01:52:32;;;;;;;7.60;6.80;;;;;;;;;;107963;272;38602;-38
2023/06/26 01:55:21;;;;;;;8.90;6.90;;;;;;;;;;107958;273;39779;-38
2023/06/26 01:57:58;;;;;;;8.50;6.70;;;;;;;;;;107981;273;42921;-38
2023/06/26 02:00:35;;;;;;;7.80;6.80;;;;;;;;;;107941;276;42118;-38
2023/06/26 02:03:08;;;;;;;7.70;6.70;;;;;;;;;;107960;273;38759;-39
2023/06/26 02:05:44;;;;;;;8.50;7.00;;;;;;;;;;107978;272;39668;-38
2023/06/26 02:08:18;;;;;;;8.70;6.90;;;;;;;;;;107947;276;42920;-39
2023/06/26 02:10:54;;;;;;;7.90;6.90;;;;;;;;;;108081;272;42671;-39
2023/06/26 02:13:28;;;;;;;8.10;6.90;;;;;;;;;;107981;276;38783;-38
2023/06/26 02:16:02;;;;;;;7.80;7.00;;;;;;;;;;107968;276;41025;-38
2023/06/26 02:18:35;;;;;;;8.20;6.80;;;;;;;;;;107981;276;42885;-38
2023/06/26 02:21:09;;;;;;;7.80;6.80;;;;;;;;;;107892;276;48904;-38
2023/06/26 02:23:43;;;;;;;7.40;6.50;;;;;;;;;;107929;276;38795;-39
2023/06/26 02:26:16;;;;;;;7.40;6.60;;;;;;;;;;107948;269;40850;-39
2023/06/26 02:28:49;;;;;;;8.70;6.80;;;;;;;;;;107967;269;42865;-39
2023/06/26 02:31:23;;;;;;;7.80;6.60;;;;;;;;;;107891;276;46962;-39
2023/06/26 02:33:56;;;;;;;7.70;6.90;;;;;;;;;;107925;273;38783;-39
2023/06/26 02:36:29;;;;;;;7.70;6.30;;;;;;;;;;107927;276;39697;-39
2023/06/26 02:39:04;;;;;;;8.00;6.50;;;;;;;;;;107952;269;42659;-39
2023/06/26 02:41:38;;;;;;;7.50;6.70;;;;;;;;;;107885;273;47623;-39
2023/06/26 02:44:12;;;;;;;7.80;6.50;;;;;;;;;;107980;273;39164;-39
2023/06/26 02:46:45;;;;;;;8.40;6.80;;;;;;;;;;107972;276;39819;-39
2023/06/26 02:49:18;;;;;;;8.00;6.50;;;;;;;;;;107954;269;43027;-39
2023/06/26 02:51:55;;;;;;;8.50;6.80;;;;;;;;;;107913;273;47617;-39
2023/06/26 02:54:29;;;;;;;7.50;6.70;;;;;;;;;;107859;269;191895;-39
2023/06/26 02:57:02;;;;;;;8.30;6.80;;;;;;;;;;107948;269;39702;-39
2023/06/26 02:59:39;;;;;;;7.70;6.40;;;;;;;;;;107949;276;42859;-39
2023/06/26 03:02:12;;;;;;;8.50;6.50;;;;;;;;;;107887;273;49041;-38
2023/06/26 03:04:47;;;;;;;7.80;6.30;;;;;;;;;;107342;273;894744;-38
2023/06/26 03:07:20;;;;;;;7.90;6.30;;;;;;;;;;107970;276;39428;-38
2023/06/26 03:09:54;;;;;;;7.40;6.10;;;;;;;;;;107964;269;42968;-38
2023/06/26 03:12:27;;;;;;;7.40;6.50;;;;;;;;;;108074;276;48820;-38
2023/06/26 03:15:01;;;;;;;7.50;6.30;;;;;;;;;;107935;269;38814;-38
2023/06/26 03:17:34;;;;;;;7.20;6.10;;;;;;;;;;107994;273;40056;-38
2023/06/26 03:20:10;;;;;;;7.20;6.10;;;;;;;;;;107933;273;42622;-39
2023/06/26 03:22:43;;;;;;;7.40;6.30;;;;;;;;;;108073;276;48886;-38
2023/06/26 03:25:20;;;;;;;8.50;6.20;;;;;;;;;;107961;276;38909;-38
2023/06/26 03:27:55;;;;;;;7.70;6.20;;;;;;;;;;107980;276;39678;-39
2023/06/26 03:30:28;;;;;;;7.20;6.00;;;;;;;;;;107976;276;45200;-39
2023/06/26 03:33:02;;;;;;;7.10;6.10;;;;;;;;;;107944;276;47768;-38
2023/06/26 03:35:35;;;;;;;6.80;5.80;;;;;;;;;;107939;276;38516;-37
2023/06/26 03:38:08;;;;;;;7.00;6.30;;;;;;;;;;107988;276;40720;-38
2023/06/26 03:40:42;;;;;;;7.70;6.20;;;;;;;;;;107952;269;42882;-38
2023/06/26 03:43:15;;;;;;;7.70;6.10;;;;;;;;;;107944;276;47909;-38
2023/06/26 03:45:49;;;;;;;7.10;6.30;;;;;;;;;;107980;269;38902;-38
2023/06/26 03:48:24;;;;;;;7.40;6.20;;;;;;;;;;107986;273;39447;-38
2023/06/26 03:50:57;;;;;;;7.60;6.80;;;;;;;;;;107949;269;42854;-38
2023/06/26 03:53:31;;;;;;;8.00;6.40;;;;;;;;;;107811;273;175538;-38
2023/06/26 03:56:05;;;;;;;7.70;6.70;;;;;;;;;;107948;273;39931;-38
2023/06/26 03:58:38;;;;;;;7.20;6.20;;;;;;;;;;107962;276;39716;-38
2023/06/26 04:01:11;;;;;;;8.10;6.60;;;;;;;;;;107962;273;42837;-39
2023/06/26 04:03:45;;;;;;;7.80;6.90;;;;;;;;;;107916;273;47276;-38
2023/06/26 04:06:18;;;;;;;8.60;6.90;;;;;;;;;;107949;276;39204;-38
2023/06/26 04:08:51;;;;;;;9.20;6.90;;;;;;;;;;107951;273;38629;-39
2023/06/26 04:11:26;;;;;;;9.20;7.00;;;;;;;;;;107947;273;42998;-39
2023/06/26 04:14:00;;;;;;;9.40;7.00;;;;;;;;;;108066;273;49727;-39
2023/06/26 04:16:34;;;;;;;8.60;7.40;;;;;;;;;;107924;276;38991;-39
2023/06/26 04:19:07;;;;;;;8.70;7.00;;;;;;;;;;107962;276;39702;-39
2023/06/26 04:21:41;;;;;;;9.10;7.40;;;;;;;;;;107926;272;42706;-39
2023/06/26 04:24:17;;;;;;;8.70;7.60;;;;;;;;;;107925;269;47612;-39
2023/06/26 04:26:50;;;;;;;8.70;6.80;;;;;;;;;;107971;269;39891;-39
2023/06/26 04:29:25;;;;;;;8.40;6.90;;;;;;;;;;107971;269;39809;-39
2023/06/26 04:32:00;;;;;;;8.40;7.00;;;;;;;;;;107963;273;43891;-39
2023/06/26 04:34:36;;;;;;;8.70;7.40;;;;;;;;;;107915;273;46918;-39
2023/06/26 04:37:10;;;;;;;8.60;6.70;;;;;;;;;;107956;269;38817;-39
2023/06/26 04:39:44;;;;;;;8.60;7.10;;;;;;;;;;107969;276;39441;-38
2023/06/26 04:42:21;;;;;;;7.90;7.10;;;;;;;;;;107817;272;175454;-39
2023/06/26 04:44:58;;;;;;;8.60;6.90;;;;;;;;;;107945;272;48872;-39
2023/06/26 04:47:31;;;;;;;7.80;6.70;;;;;;;;;;107950;273;38735;-39
2023/06/26 04:50:06;;;;;;;8.80;7.20;;;;;;;;;;107657;273;426931;-39
2023/06/26 04:52:39;;;;;;;8.80;7.40;;;;;;;;;;107976;269;43368;-39
2023/06/26 04:55:15;;;;;;;8.40;7.10;;;;;;;;;;107953;272;49127;-39
2023/06/26 04:57:48;;;;;;;9.20;7.20;;;;;;;;;;107960;276;39895;-38
2023/06/26 05:00:25;;;;;;;8.80;7.30;;;;;;;;;;107314;272;895471;-38
2023/06/26 05:03:00;;;;;;;9.30;7.20;;;;;;;;;;107952;272;44029;-38
2023/06/26 05:05:36;;;;;;;8.80;6.50;;;;;;;;;;107915;269;48752;-45
2023/06/26 05:08:24;;;;;;;8.80;6.40;;;;;;;;;;107945;273;38720;-39
2023/06/26 05:10:59;;;;;;;9.10;7.10;;;;;;;;;;107972;273;39482;-38
2023/06/26 05:13:33;;;;;;;9.40;6.70;;;;;;;;;;107873;269;44015;-38
2023/06/26 05:16:08;;;;;;;8.60;6.40;;;;;;;;;;107983;269;48333;-38
2023/06/26 05:18:42;;;;;;;7.90;6.40;;;;;;;;;;107956;276;40003;-39
2023/06/26 05:21:19;;;;;;;8.50;6.70;;;;;;;;;;107966;269;39475;-43
2023/06/26 05:23:57;;;;;;;8.20;6.50;;;;;;;;;;107937;272;42862;-39
2023/06/26 05:26:33;;;;;;;8.10;6.40;;;;;;;;;;107947;276;49517;-38
2023/06/26 05:29:09;;;;;;;7.80;6.60;;;;;;;;;;107956;272;38610;-38
2023/06/26 05:31:47;;;;;;;8.20;6.30;;;;;;;;;;107966;276;39865;-38
2023/06/26 05:34:22;;;;;;;9.30;6.60;;;;;;;;;;107943;276;43046;-38
2023/06/26 05:37:00;;;;;;;8.00;6.50;;;;;;;;;;107956;272;42423;-38
2023/06/26 05:39:37;;;;;;;8.00;7.00;;;;;;;;;;107985;269;38887;-38
2023/06/26 05:42:18;;;;;;;8.80;7.30;;;;;;;;;;107941;276;39726;-38
2023/06/26 05:44:51;;;;;;;8.70;6.70;;;;;;;;;;107974;276;42848;-38
2023/06/26 05:47:25;;;;;;;7.80;6.60;;;;;;;;;;107970;272;42230;-38
2023/06/26 05:50:02;;;;;;;9.50;6.80;;;;;;;;;;107986;276;39003;-38
2023/06/26 05:52:38;;;;;;;9.00;7.00;;;;;;;;;;107852;269;192814;-38
2023/06/26 05:55:15;;;;;;;10.60;7.60;;;;;;;;;;107956;273;42774;-38
2023/06/26 05:57:50;;;;;;;9.80;7.60;;;;;;;;;;107979;272;42133;-40
2023/06/26 06:00:30;;;;;;;8.50;7.30;;;;;;;;;;107961;276;38760;-39
2023/06/26 06:03:04;;;;;;;7.90;6.70;;;;;;;;;;107983;272;39479;-38
2023/06/26 06:05:37;;;;;;;8.40;7.00;;;;;;;;;;107946;269;42925;-38
2023/06/26 06:08:10;;;;;;;8.20;6.70;;;;;;;;;;107967;272;43220;-39
2023/06/26 06:10:44;;;;;;;8.60;6.70;;;;;;;;;;107964;276;38865;-38
2023/06/26 06:13:17;;;;;;;10.00;7.00;;;;;;;;;;107953;269;39826;-38
2023/06/26 06:15:50;;;;;;;9.40;7.50;;;;;;;;;;107887;269;44015;-38
2023/06/26 06:18:24;;;;;;;9.40;6.60;;;;;;;;;;107961;269;42112;-38
2023/06/26 06:20:57;;;;;;;8.50;6.30;;;;;;;;;;108034;276;38785;-38
2023/06/26 06:23:32;;;;;;;8.30;6.60;;;;;;;;;;107968;276;39451;-38
2023/06/26 06:26:05;;;;;;;8.10;6.70;;;;;;;;;;107947;276;43060;-38
2023/06/26 06:28:38;;;;;;;8.30;6.50;;;;;;;;;;107962;273;43137;-37
2023/06/26 06:31:12;;;;;;;9.10;6.70;;;;;;;;;;107937;276;38757;-37
2023/06/26 06:33:45;;;;;;;8.40;6.40;;;;;;;;;;107968;273;39706;-38
2023/06/26 06:36:18;;;;;;;8.30;6.30;;;;;;;;;;107928;269;43793;-38
2023/06/26 06:38:51;;;;;;;8.20;6.30;;;;;;;;;;107956;269;42103;-38
2023/06/26 06:41:26;;;;;;;8.30;6.70;;;;;;;;;;107970;269;39807;-38
2023/06/26 06:43:59;;;;;;;7.30;6.30;;;;;;;;;;107979;273;39658;-38
2023/06/26 06:46:33;;;;;;;7.80;6.00;;;;;;;;;;107927;273;42881;-38
2023/06/26 06:49:12;;;;;;;7.50;6.00;;;;;;;;;;107313;273;914962;-38
2023/06/26 06:51:46;;;;;;;7.20;5.90;;;;;;;;;;107985;269;38665;-38
2023/06/26 06:54:20;;;;;;;6.90;5.80;;;;;;;;;;107960;276;39644;-38
2023/06/26 06:56:54;;;;;;;7.90;6.20;;;;;;;;;;107920;269;43057;-39
2023/06/26 06:59:27;;;;;;;7.50;6.00;;;;;;;;;;107990;269;42154;-40
2023/06/26 07:02:00;;;;;;;7.90;6.30;;;;;;;;;;107936;276;38755;-38
2023/06/26 07:04:36;;;;;;;7.20;5.70;;;;;;;;;;107949;273;39737;-39
2023/06/26 07:07:10;;;;;;;7.40;6.20;;;;;;;;;;107935;273;42881;-39
2023/06/26 07:09:44;;;;;;;7.20;5.50;;;;;;;;;;108717;276;41904;-36
2023/06/26 07:12:18;;;;;;;6.70;5.60;;;;;;;;;;109787;271;38783;-37
2023/06/26 07:15:09;;;;;;;9.90;6.20;;;;;;;;;;109763;272;39851;-35
2023/06/26 07:17:44;;;;;;;8.30;6.50;;;;;;;;;;109732;276;42946;-36
2023/06/26 07:20:20;;;;;;;9.00;6.20;;;;;;;;;;109773;268;41853;-36
2023/06/26 07:22:55;;;;;;;8.00;6.10;;;;;;;;;;109804;275;38891;-40
2023/06/26 07:25:33;;;;;;;9.70;6.20;;;;;;;;;;109752;276;39710;-37
2023/06/26 07:28:12;;;;;;;9.10;6.20;;;;;;;;;;109781;275;42880;-38
2023/06/26 07:30:46;;;;;;;8.40;5.70;;;;;;;;;;109789;276;42175;-37
2023/06/26 07:33:20;;;;;;;8.00;6.10;;;;;;;;;;109774;276;38847;-36
2023/06/26 07:35:55;;;;;;;8.50;5.90;;;;;;;;;;109788;276;40811;-36
2023/06/26 07:38:29;;;;;;;8.20;6.00;;;;;;;;;;109784;275;42808;-36
2023/06/26 07:41:04;;;;;;;7.70;5.80;;;;;;;;;;109776;275;41901;-36
2023/06/26 07:43:38;;;;;;;9.00;6.10;;;;;;;;;;109787;275;38766;-36
2023/06/26 07:46:12;;;;;;;7.70;5.90;;;;;;;;;;109774;276;39836;-36
2023/06/26 07:48:46;;;;;;;7.90;5.90;;;;;;;;;;109609;276;175003;-36
2023/06/26 07:51:20;;;;;;;7.10;5.90;;;;;;;;;;109775;276;42140;-36
2023/06/26 07:53:54;;;;;;;7.50;5.90;;;;;;;;;;109785;276;38528;-36
2023/06/26 07:56:28;;;;;;;7.20;5.20;;;;;;;;;;109770;276;39602;-36
2023/06/26 07:59:04;;;;;;;7.00;5.50;;;;;;;;;;109771;276;42788;-36
2023/06/26 08:01:40;;;;;;;6.90;5.60;;;;;;;;;;109803;276;43244;-36
2023/06/26 08:04:14;;;;;;;6.20;5.20;;;;;;;;;;109790;272;38755;-36
2023/06/26 08:06:48;;;;;;;6.70;5.10;;;;;;;;;;109762;276;39687;-37
2023/06/26 08:09:23;;;;;;;6.40;5.10;;;;;;;;;;109741;276;43333;-38
2023/06/26 08:11:59;;;;;;;6.80;5.30;;;;;;;;;;109819;276;42166;-38
2023/06/26 08:14:33;;;;;;;7.00;4.90;;;;;;;;;;109684;275;174935;-36
2023/06/26 08:17:10;;;;;;;6.90;4.90;;;;;;;;;;109770;275;40018;-36
2023/06/26 08:19:44;;;;;;;6.60;4.60;;;;;;;;;;109722;275;43914;-37
2023/06/26 08:22:18;;;;;;;6.00;4.80;;;;;;;;;;109652;275;174981;-36
2023/06/26 08:24:52;;;;;;;6.50;4.70;;;;;;;;;;109767;276;38821;-37
2023/06/26 08:27:26;;;;;;;6.60;4.80;;;;;;;;;;109811;276;39650;-37
2023/06/26 08:30:01;;;;;;;6.30;4.90;;;;;;;;;;109754;272;49935;-38
2023/06/26 08:32:38;;;;;;;6.30;4.60;;;;;;;;;;109779;275;41839;-40
2023/06/26 08:35:12;;;;;;;6.20;4.50;;;;;;;;;;109785;272;38958;-37
2023/06/26 08:38:01;;;;;;;6.00;4.80;;;;;;;;;;109800;275;39731;-39
2023/06/26 08:40:38;;;;;;;5.70;4.40;;;;;;;;;;109755;275;48535;-40
2023/06/26 08:43:12;;;;;;;6.20;4.80;;;;;;;;;;109763;275;43192;-39
2023/06/26 08:45:54;;;;;;;6.50;4.80;;;;;;;;;;109749;275;38693;-40
2023/06/26 08:48:30;;;;;;;6.60;4.70;;;;;;;;;;109765;275;39735;-40
2023/06/26 08:51:14;;;;;;;6.60;4.90;;;;;;;;;;109771;275;50162;-40
2023/06/26 08:53:57;;;;;;;6.90;4.90;;;;;;;;;;109789;275;42121;-39
2023/06/26 08:56:37;;;;;;;6.10;4.60;;;;;;;;;;109774;272;38564;-40
2023/06/26 08:59:16;;;;;;;6.20;4.80;;;;;;;;;;109752;276;39659;-40
2023/06/26 09:01:51;;;;;;;6.10;4.50;;;;;;;;;;109766;275;42850;-39
2023/06/26 09:04:27;;;;;;;6.70;4.40;;;;;;;;;;109775;275;43352;-40
2023/06/26 09:07:02;;;;;;;6.00;4.40;;;;;;;;;;109790;275;38861;-39
2023/06/26 09:09:38;;;;;;;6.10;4.60;;;;;;;;;;109752;275;39595;-39
2023/06/26 09:12:13;;;;;;;6.40;4.80;;;;;;;;;;109650;276;174915;-46
2023/06/26 09:14:51;;;;;;;5.80;4.20;;;;;;;;;;109793;280;42415;-46
2023/06/26 09:17:31;;;;;;;6.10;4.60;;;;;;;;;;109808;275;38793;-45
2023/06/26 09:20:07;;;;;;;6.80;4.80;;;;;;;;;;109761;275;39683;-47
2023/06/26 09:22:43;;;;;;;6.00;4.50;;;;;;;;;;109793;275;42985;-47
2023/06/26 09:25:19;;;;;;;6.30;4.50;;;;;;;;;;109787;275;42251;-47
2023/06/26 09:27:55;;;;;;;6.00;4.50;;;;;;;;;;109767;275;39807;-46
2023/06/26 09:30:30;;;;;;;6.80;4.80;;;;;;;;;;109766;275;39683;-44
2023/06/26 09:33:18;;;;;;;5.80;4.50;;;;;;;;;;109785;277;44193;-44
2023/06/26 09:35:51;;;;;;;6.50;4.60;;;;;;;;;;109778;274;42152;-37
2023/06/26 09:38:34;;;;;;;6.40;4.40;;;;;;;;;;109758;276;38740;-36
2023/06/26 09:41:08;;;;;;;7.30;4.20;;;;;;;;;;109794;276;40867;-36
2023/06/26 09:43:51;;;;;;;6.10;4.50;;;;;;;;;;109779;267;43996;-36
2023/06/26 09:46:32;;;;;;;6.30;4.30;;;;;;;;;;109096;275;892055;-38
2023/06/26 09:49:10;;;;;;;5.40;4.10;;;;;;;;;;109802;275;38773;-39
2023/06/26 09:51:52;;;;;;;5.80;4.00;;;;;;;;;;109751;275;39478;-38
2023/06/26 09:54:28;;;;;;;5.60;4.00;;;;;;;;;;109789;267;42610;-39
2023/06/26 09:57:16;;;;;;;6.80;4.40;;;;;;;;;;109749;275;43391;-41
2023/06/26 09:59:51;;;;;;;5.70;4.20;;;;;;;;;;109801;275;38673;-39
2023/06/26 10:02:35;;;;;;;6.40;4.00;;;;;;;;;;109757;268;39450;-39
2023/06/26 10:05:09;;;;;;;5.50;4.00;;;;;;;;;;109764;275;43987;-39
2023/06/26 10:07:44;;;;;;;5.70;3.90;;;;;;;;;;109776;272;42084;-39
2023/06/26 10:10:18;;;;;;;5.90;3.90;;;;;;;;;;109760;276;38728;-38
2023/06/26 10:13:03;;;;;;;5.30;3.70;;;;;;;;;;109776;275;39964;-38
2023/06/26 10:15:38;;;;;;;5.60;3.90;;;;;;;;;;109774;275;42836;-39
2023/06/26 10:18:14;;;;;;;5.10;3.60;;;;;;;;;;109807;276;42098;-39
2023/06/26 10:20:51;;;;;;;5.80;3.80;;;;;;;;;;109793;267;39055;-39
2023/06/26 10:23:27;;;;;;;6.30;3.50;;;;;;;;;;109657;276;174918;-38
2023/06/26 10:26:03;;;;;;;5.90;4.00;;;;;;;;;;109774;272;42981;-38
2023/06/26 10:28:40;;;;;;;5.20;3.60;;;;;;;;;;109800;276;42251;-39
2023/06/26 10:31:17;;;;;;;5.80;3.50;;;;;;;;;;109813;276;38807;-39
2023/06/26 10:33:59;;;;;;;6.60;3.60;;;;;;;;;;109750;276;39987;-37
2023/06/26 10:36:37;;;;;;;7.20;4.20;;;;;;;;;;109791;272;42736;-38
2023/06/26 10:39:14;;;;;;;6.10;3.80;;;;;;;;;;109774;275;42167;-37
2023/06/26 10:41:52;;;;;;;6.60;4.20;;;;;;;;;;109794;267;39909;-37
2023/06/26 10:44:29;;;;;;;6.60;4.00;;;;;;;;;;109758;275;46667;-38
2023/06/26 10:47:03;;;;;;;6.00;3.90;;;;;;;;;;109757;275;42617;-42
2023/06/26 10:49:42;;;;;;;6.10;4.30;;;;;;;;;;109765;275;42125;-41
2023/06/26 10:52:19;;;;;;;6.00;4.00;;;;;;;;;;109763;276;38756;-41
2023/06/26 10:54:52;;;;;;;7.00;4.20;;;;;;;;;;109747;272;48110;-39
2023/06/26 10:57:29;;;;;;;5.40;3.80;;;;;;;;;;109781;267;42979;-39
2023/06/26 11:00:18;;;;;;;5.30;3.80;;;;;;;;;;109770;275;42283;-38
2023/06/26 11:02:55;;;;;;;5.90;3.80;;;;;;;;;;109801;275;38900;-41
2023/06/26 11:05:36;;;;;;;5.70;4.00;;;;;;;;;;109766;276;39985;-41
2023/06/26 11:08:12;;;;;;;5.80;4.00;;;;;;;;;;109794;275;42840;-41
2023/06/26 11:11:02;;;;;;;5.90;3.80;;;;;;;;;;109771;275;42197;-42
2023/06/26 11:13:39;;;;;;;6.10;3.90;;;;;;;;;;109762;275;38764;-43
2023/06/26 11:16:17;;;;;;;5.50;4.00;;;;;;;;;;109767;276;39699;-39
2023/06/26 11:18:54;;;;;;;5.60;3.80;;;;;;;;;;109769;276;43035;-41
2023/06/26 11:21:28;;;;;;;5.90;3.90;;;;;;;;;;109810;276;42289;-39
2023/06/26 11:24:08;;;;;;;5.20;3.70;;;;;;;;;;109750;275;38970;-40
2023/06/26 11:26:44;;;;;;;6.50;3.90;;;;;;;;;;109773;276;39715;-41
2023/06/26 11:29:21;;;;;;;5.70;3.50;;;;;;;;;;109806;275;44238;-38
2023/06/26 11:32:07;;;;;;;5.50;3.80;;;;;;;;;;109795;275;42305;-40
2023/06/26 11:34:43;;;;;;;5.20;3.70;;;;;;;;;;109790;267;39878;-40
2023/06/26 11:37:21;;;;;;;5.10;3.60;;;;;;;;;;109774;272;40842;-38
2023/06/26 11:39:56;;;;;;;5.40;3.60;;;;;;;;;;109777;268;42873;-39
2023/06/26 11:42:35;;;;;;;5.30;3.60;;;;;;;;;;109794;272;43406;-38
2023/06/26 11:45:11;;;;;;;5.60;3.80;;;;;;;;;;109739;276;39767;-40
2023/06/26 11:47:45;;;;;;;5.20;3.40;;;;;;;;;;109627;276;174887;-40
2023/06/26 11:50:22;;;;;;;5.50;3.50;;;;;;;;;;109786;275;42860;-40
2023/06/26 11:53:01;;;;;;;5.20;3.20;;;;;;;;;;109774;275;42241;-39
2023/06/26 11:55:45;;;;;;;5.30;3.40;;;;;;;;;;109747;268;38825;-38
2023/06/26 11:58:19;;;;;;;5.30;3.60;;;;;;;;;;109773;276;39925;-38
2023/06/26 12:00:55;;;;;;;5.60;3.40;;;;;;;;;;109775;275;42838;-36
2023/06/26 12:03:35;;;;;;;5.80;3.70;;;;;;;;;;109761;275;42114;-40
2023/06/26 12:06:09;;;;;;;5.90;3.70;;;;;;;;;;109779;275;39998;-44
2023/06/26 12:08:44;;;;;;;5.30;3.70;;;;;;;;;;109776;275;39653;-40
2023/06/26 12:11:22;;;;;;;5.10;3.50;;;;;;;;;;109766;275;42954;-40
2023/06/26 12:13:57;;;;;;;5.90;3.40;;;;;;;;;;109775;276;42315;-40
2023/06/26 12:16:39;;;;;;;5.60;3.60;;;;;;;;;;109731;269;44746;-41
2023/06/26 12:19:12;;;;;;;5.90;3.70;;;;;;;;;;109772;275;39431;-40
2023/06/26 12:21:56;;;;;;;5.10;3.70;;;;;;;;;;109783;275;43930;-40
2023/06/26 12:24:43;;;;;;;6.10;3.50;;;;;;;;;;109770;276;42124;-40
2023/06/26 12:27:19;;;;;;;5.20;3.60;;;;;;;;;;109800;272;38825;-40
2023/06/26 12:29:56;;;;;;;5.30;3.40;;;;;;;;;;109778;275;40850;-40
2023/06/26 12:32:47;;;;;;;5.70;4.10;;;;;;;;;;109748;276;42947;-40
2023/06/26 12:35:25;;;;;;;7.70;4.30;;;;;;;;;;109759;267;42114;-38
2023/06/26 12:37:59;;;;;;;5.30;3.80;;;;;;;;;;109818;275;38649;-38
2023/06/26 12:40:33;;;;;;;6.50;4.30;;;;;;;;;;109676;275;174874;-38
2023/06/26 12:43:15;;;;;;;5.90;4.50;;;;;;;;;;109796;275;42899;-38
2023/06/26 12:45:50;;;;;;;5.60;4.00;;;;;;;;;;109766;272;43372;-37
2023/06/26 12:48:39;;;;;;;5.90;4.20;;;;;;;;;;109806;275;38758;-37
2023/06/26 12:51:14;;;;;;;6.10;4.00;;;;;;;;;;109503;277;41943;-39
2023/06/26 12:53:47;;;;;;;6.10;4.10;;;;;;;;;;109771;267;42913;-37
2023/06/26 12:56:21;;;;;;;6.30;4.00;;;;;;;;;;109768;275;42210;-39
2023/06/26 12:58:58;;;;;;;5.40;4.00;;;;;;;;;;109761;272;39028;-38
2023/06/26 13:01:34;;;;;;;8.30;4.00;;;;;;;;;;109793;276;39827;-37
2023/06/26 13:04:10;;;;;;;6.10;4.10;;;;;;;;;;109775;267;43476;-38
2023/06/26 13:06:43;;;;;;;5.60;3.90;;;;;;;;;;109772;275;42103;-40
2023/06/26 13:09:23;;;;;;;5.50;4.00;;;;;;;;;;109779;275;38778;-37
2023/06/26 13:11:58;;;;;;;5.30;3.80;;;;;;;;;;109781;275;40751;-38
2023/06/26 13:14:31;;;;;;;5.30;3.60;;;;;;;;;;109786;276;42866;-39
2023/06/26 13:17:09;;;;;;;4.90;3.40;;;;;;;;;;109758;272;42135;-38
2023/06/26 13:19:43;;;;;;;7.10;3.70;;;;;;;;;;109750;276;40484;-37
2023/06/26 13:22:19;;;;;;;5.80;3.40;;;;;;;;;;109802;276;39816;-38
2023/06/26 13:24:53;;;;;;;5.50;3.60;;;;;;;;;;109788;275;42869;-38
2023/06/26 13:27:28;;;;;;;5.80;3.40;;;;;;;;;;109772;275;42244;-37
2023/06/26 13:30:05;;;;;;;5.00;3.40;;;;;;;;;;109779;275;39760;-39
2023/06/26 13:32:39;;;;;;;6.00;3.60;;;;;;;;;;109777;275;39689;-38
2023/06/26 13:35:13;;;;;;;5.30;3.50;;;;;;;;;;109774;272;42819;-38
2023/06/26 13:37:47;;;;;;;5.10;3.30;;;;;;;;;;109740;271;41885;-36
2023/06/26 13:40:22;;;;;;;5.10;3.20;;;;;;;;;;109771;275;39859;-39
2023/06/26 13:42:56;;;;;;;4.80;3.10;;;;;;;;;;109774;275;40744;-39
2023/06/26 13:45:36;;;;;;;5.10;3.00;;;;;;;;;;109769;275;44049;-38
2023/06/26 13:48:09;;;;;;;5.30;3.10;;;;;;;;;;109768;272;42206;-38
2023/06/26 13:50:44;;;;;;;4.70;3.00;;;;;;;;;;109777;275;39938;-38
2023/06/26 13:53:27;;;;;;;4.90;3.20;;;;;;;;;;109803;275;39775;-40
2023/06/26 13:56:01;;;;;;;4.60;3.00;;;;;;;;;;109794;275;43054;-39
2023/06/26 13:58:39;;;;;;;4.70;2.90;;;;;;;;;;109739;275;48789;-40
2023/06/26 14:01:13;;;;;;;4.70;2.90;;;;;;;;;;109751;280;38780;-39
2023/06/26 14:03:51;;;;;;;5.20;3.10;;;;;;;;;;109791;275;39444;-40
2023/06/26 14:06:30;;;;;;;5.10;2.90;;;;;;;;;;109774;275;42589;-39
2023/06/26 14:09:13;;;;;;;4.80;2.80;;;;;;;;;;109749;275;48450;-40
2023/06/26 14:11:52;;;;;;;4.60;2.80;;;;;;;;;;109782;275;38793;-39
2023/06/26 14:14:28;;;;;;;4.80;3.30;;;;;;;;;;109774;276;39635;-40
2023/06/26 14:17:06;;;;;;;5.00;3.00;;;;;;;;;;109766;275;44660;-40
2023/06/26 14:19:40;;;;;;;6.50;3.10;;;;;;;;;;109773;272;43274;-39
2023/06/26 14:22:14;;;;;;;4.50;2.70;;;;;;;;;;109791;275;38965;-38
2023/06/26 14:24:50;;;;;;;5.20;2.70;;;;;;;;;;109774;276;39920;-40
2023/06/26 14:27:23;;;;;;;4.80;2.80;;;;;;;;;;109751;276;42806;-39
2023/06/26 14:29:57;;;;;;;4.90;2.90;;;;;;;;;;109797;272;42102;-44
2023/06/26 14:32:32;;;;;;;4.70;2.80;;;;;;;;;;109762;275;38793;-41
2023/06/26 14:35:10;;;;;;;4.90;2.80;;;;;;;;;;109762;275;39832;-40
2023/06/26 14:37:46;;;;;;;4.60;2.80;;;;;;;;;;109799;278;43034;-38
2023/06/26 14:40:20;;;;;;;5.00;2.80;;;;;;;;;;109651;276;174850;-37
2023/06/26 14:42:55;;;;;;;4.60;2.90;;;;;;;;;;109764;267;39041;-38
2023/06/26 14:45:29;;;;;;;4.10;2.70;;;;;;;;;;109748;276;39687;-38
2023/06/26 14:48:06;;;;;;;4.60;2.90;;;;;;;;;;109786;275;42827;-37
2023/06/26 14:50:39;;;;;;;5.00;2.70;;;;;;;;;;109781;275;42301;-37
2023/06/26 14:53:14;;;;;;;4.80;2.80;;;;;;;;;;109782;268;38728;-38
2023/06/26 14:55:48;;;;;;;4.30;2.60;;;;;;;;;;109770;275;40906;-38
2023/06/26 14:58:22;;;;;;;4.20;2.70;;;;;;;;;;109743;278;42672;-37
2023/06/26 15:00:58;;;;;;;5.30;2.90;;;;;;;;;;109822;275;43426;-37
2023/06/26 15:03:32;;;;;;;4.70;2.80;;;;;;;;;;109784;276;38854;-37
2023/06/26 15:06:06;;;;;;;4.50;3.00;;;;;;;;;;109788;272;39708;-37
2023/06/26 15:08:42;;;;;;;5.00;2.80;;;;;;;;;;109860;275;42966;-37
2023/06/26 15:11:17;;;;;;;4.50;2.90;;;;;;;;;;109766;267;42240;-37
2023/06/26 15:13:51;;;;;;;4.80;2.70;;;;;;;;;;109762;271;39918;-37
2023/06/26 15:16:29;;;;;;;4.70;2.80;;;;;;;;;;109779;276;39820;-37
2023/06/26 15:19:02;;;;;;;4.60;2.90;;;;;;;;;;109746;275;42694;-38
2023/06/26 15:21:36;;;;;;;5.20;3.10;;;;;;;;;;109771;267;43263;-37
2023/06/26 15:24:13;;;;;;;4.90;2.90;;;;;;;;;;109789;276;38802;-38
2023/06/26 15:26:47;;;;;;;4.70;3.00;;;;;;;;;;109787;272;40346;-38
2023/06/26 15:29:21;;;;;;;5.10;2.90;;;;;;;;;;109765;276;44522;-38
2023/06/26 15:31:56;;;;;;;4.40;2.90;;;;;;;;;;109746;275;42159;-37
2023/06/26 15:34:30;;;;;;;4.80;3.00;;;;;;;;;;109759;276;38763;-38